sensor_id;sensor_type;location;lat;lon;timestamp;temperature;humidity
66343;DHT22;53144;51.524;5.080;2023-06-22T00:01:27;17.83;87.89
66343;DHT22;53144;51.524;5.080;2023-06-22T00:03:52;17.86;87.43
66343;DHT22;53144;51.524;5.080;2023-06-22T00:06:18;17.86;86.67
66343;DHT22;53144;51.524;5.080;2023-06-22T00:08:43;17.63;87.93
66343;DHT22;53144;51.524;5.080;2023-06-22T00:11:08;17.41;88.66
66343;DHT22;53144;51.524;5.080;2023-06-22T00:13:34;17.34;89.68
66343;DHT22;53144;51.524;5.080;2023-06-22T00:15:59;17.35;89.96
66343;DHT22;53144;51.524;5.080;2023-06-22T00:18:25;17.32;90.33
66343;DHT22;53144;51.524;5.080;2023-06-22T00:20:54;17.38;89.84
66343;DHT22;53144;51.524;5.080;2023-06-22T00:23:23;17.42;89.25
66343;DHT22;53144;51.524;5.080;2023-06-22T00:25:49;17.56;89.14
66343;DHT22;53144;51.524;5.080;2023-06-22T00:28:14;17.75;88.23
66343;DHT22;53144;51.524;5.080;2023-06-22T00:30:40;17.71;88.24
66343;DHT22;53144;51.524;5.080;2023-06-22T00:33:05;17.79;87.63
66343;DHT22;53144;51.524;5.080;2023-06-22T00:35:32;17.76;86.93
66343;DHT22;53144;51.524;5.080;2023-06-22T00:37:59;17.65;87.48
66343;DHT22;53144;51.524;5.080;2023-06-22T00:43:50;16.91;90.08
66343;DHT22;53144;51.524;5.080;2023-06-22T00:46:16;16.87;90.27
66343;DHT22;53144;51.524;5.080;2023-06-22T00:48:41;16.84;90.63
66343;DHT22;53144;51.524;5.080;2023-06-22T00:51:09;16.79;91.12
66343;DHT22;53144;51.524;5.080;2023-06-22T00:53:35;16.83;91.18
66343;DHT22;53144;51.524;5.080;2023-06-22T00:56:02;16.87;91.33
66343;DHT22;53144;51.524;5.080;2023-06-22T00:58:28;16.90;91.25
66343;DHT22;53144;51.524;5.080;2023-06-22T01:00:54;16.90;90.38
66343;DHT22;53144;51.524;5.080;2023-06-22T01:03:20;17.07;89.81
66343;DHT22;53144;51.524;5.080;2023-06-22T01:05:46;17.13;89.03
66343;DHT22;53144;51.524;5.080;2023-06-22T01:11:12;17.42;88.17
66343;DHT22;53144;51.524;5.080;2023-06-22T01:13:45;17.32;88.50
66343;DHT22;53144;51.524;5.080;2023-06-22T01:16:30;17.11;88.74
66343;DHT22;53144;51.524;5.080;2023-06-22T01:18:59;17.11;88.81
66343;DHT22;53144;51.524;5.080;2023-06-22T01:21:28;17.14;88.91
66343;DHT22;53144;51.524;5.080;2023-06-22T01:24:15;17.04;88.70
66343;DHT22;53144;51.524;5.080;2023-06-22T01:26:55;16.73;90.15
66343;DHT22;53144;51.524;5.080;2023-06-22T01:29:24;16.73;90.33
66343;DHT22;53144;51.524;5.080;2023-06-22T01:31:51;16.84;90.04
66343;DHT22;53144;51.524;5.080;2023-06-22T01:34:17;16.97;89.38
66343;DHT22;53144;51.524;5.080;2023-06-22T01:36:44;17.07;88.99
66343;DHT22;53144;51.524;5.080;2023-06-22T01:39:10;17.01;88.60
66343;DHT22;53144;51.524;5.080;2023-06-22T01:41:37;17.01;88.85
66343;DHT22;53144;51.524;5.080;2023-06-22T01:44:05;17.03;88.87
66343;DHT22;53144;51.524;5.080;2023-06-22T01:46:34;16.84;89.43
66343;DHT22;53144;51.524;5.080;2023-06-22T01:49:01;16.42;91.51
66343;DHT22;53144;51.524;5.080;2023-06-22T01:51:27;16.35;91.61
66343;DHT22;53144;51.524;5.080;2023-06-22T01:53:52;16.41;91.81
66343;DHT22;53144;51.524;5.080;2023-06-22T01:56:18;16.32;92.09
66343;DHT22;53144;51.524;5.080;2023-06-22T01:58:50;16.28;92.56
66343;DHT22;53144;51.524;5.080;2023-06-22T02:01:20;16.26;92.95
66343;DHT22;53144;51.524;5.080;2023-06-22T02:04:26;16.35;93.02
66343;DHT22;53144;51.524;5.080;2023-06-22T02:06:45;16.38;92.62
66343;DHT22;53144;51.524;5.080;2023-06-22T02:09:16;16.42;92.33
66343;DHT22;53144;51.524;5.080;2023-06-22T02:11:44;16.53;92.07
66343;DHT22;53144;51.524;5.080;2023-06-22T02:14:12;16.64;91.95
66343;DHT22;53144;51.524;5.080;2023-06-22T02:16:38;16.59;92.12
66343;DHT22;53144;51.524;5.080;2023-06-22T02:19:03;16.66;91.69
66343;DHT22;53144;51.524;5.080;2023-06-22T02:21:29;16.76;91.62
66343;DHT22;53144;51.524;5.080;2023-06-22T02:23:56;16.99;90.91
66343;DHT22;53144;51.524;5.080;2023-06-22T02:26:22;16.94;91.23
66343;DHT22;53144;51.524;5.080;2023-06-22T02:28:48;16.81;91.25
66343;DHT22;53144;51.524;5.080;2023-06-22T02:31:14;16.84;91.15
66343;DHT22;53144;51.524;5.080;2023-06-22T02:33:39;16.93;90.89
66343;DHT22;53144;51.524;5.080;2023-06-22T02:36:05;17.01;90.84
66343;DHT22;53144;51.524;5.080;2023-06-22T02:38:34;17.17;90.51
66343;DHT22;53144;51.524;5.080;2023-06-22T02:41:02;17.17;90.52
66343;DHT22;53144;51.524;5.080;2023-06-22T02:43:27;17.25;90.04
66343;DHT22;53144;51.524;5.080;2023-06-22T02:45:53;17.14;90.52
66343;DHT22;53144;51.524;5.080;2023-06-22T02:48:19;17.01;90.67
66343;DHT22;53144;51.524;5.080;2023-06-22T02:50:44;17.03;90.92
66343;DHT22;53144;51.524;5.080;2023-06-22T02:53:09;16.87;91.73
66343;DHT22;53144;51.524;5.080;2023-06-22T02:55:35;16.87;91.78
66343;DHT22;53144;51.524;5.080;2023-06-22T02:58:00;16.76;92.20
66343;DHT22;53144;51.524;5.080;2023-06-22T03:00:30;16.77;92.07
66343;DHT22;53144;51.524;5.080;2023-06-22T03:02:56;16.72;91.85
66343;DHT22;53144;51.524;5.080;2023-06-22T03:05:21;16.79;91.97
66343;DHT22;53144;51.524;5.080;2023-06-22T03:07:47;16.88;91.29
66343;DHT22;53144;51.524;5.080;2023-06-22T03:10:13;16.97;91.53
66343;DHT22;53144;51.524;5.080;2023-06-22T03:12:40;17.03;91.40
66343;DHT22;53144;51.524;5.080;2023-06-22T03:15:06;17.13;91.15
66343;DHT22;53144;51.524;5.080;2023-06-22T03:17:33;17.20;90.90
66343;DHT22;53144;51.524;5.080;2023-06-22T03:19:59;17.22;90.55
66343;DHT22;53144;51.524;5.080;2023-06-22T03:22:24;17.32;90.37
66343;DHT22;53144;51.524;5.080;2023-06-22T03:24:50;17.31;90.32
66343;DHT22;53144;51.524;5.080;2023-06-22T03:27:15;17.25;91.11
66343;DHT22;53144;51.524;5.080;2023-06-22T03:29:41;17.27;90.98
66343;DHT22;53144;51.524;5.080;2023-06-22T03:32:06;17.34;90.44
66343;DHT22;53144;51.524;5.080;2023-06-22T03:34:32;17.36;90.30
66343;DHT22;53144;51.524;5.080;2023-06-22T03:37:11;17.36;90.28
66343;DHT22;53144;51.524;5.080;2023-06-22T03:39:37;17.39;90.12
66343;DHT22;53144;51.524;5.080;2023-06-22T03:42:02;17.34;90.66
66343;DHT22;53144;51.524;5.080;2023-06-22T03:44:28;17.25;90.93
66343;DHT22;53144;51.524;5.080;2023-06-22T03:46:53;17.17;91.67
66343;DHT22;53144;51.524;5.080;2023-06-22T03:49:19;17.18;91.24
66343;DHT22;53144;51.524;5.080;2023-06-22T03:51:44;17.20;91.13
66343;DHT22;53144;51.524;5.080;2023-06-22T03:54:09;17.20;91.02
66343;DHT22;53144;51.524;5.080;2023-06-22T03:56:35;17.30;90.57
66343;DHT22;53144;51.524;5.080;2023-06-22T03:59:00;17.36;90.17
66343;DHT22;53144;51.524;5.080;2023-06-22T04:01:25;17.34;90.95
66343;DHT22;53144;51.524;5.080;2023-06-22T04:03:51;17.44;90.22
66343;DHT22;53144;51.524;5.080;2023-06-22T04:06:16;17.51;89.90
66343;DHT22;53144;51.524;5.080;2023-06-22T04:08:42;17.56;89.87
66343;DHT22;53144;51.524;5.080;2023-06-22T04:11:07;17.63;89.46
66343;DHT22;53144;51.524;5.080;2023-06-22T04:13:33;17.55;90.30
66343;DHT22;53144;51.524;5.080;2023-06-22T04:15:58;17.66;89.68
66343;DHT22;53144;51.524;5.080;2023-06-22T04:18:23;17.68;88.98
66343;DHT22;53144;51.524;5.080;2023-06-22T04:20:49;17.79;88.94
66343;DHT22;53144;51.524;5.080;2023-06-22T04:23:14;17.76;89.13
66343;DHT22;53144;51.524;5.080;2023-06-22T04:25:40;17.86;88.55
66343;DHT22;53144;51.524;5.080;2023-06-22T04:28:05;17.85;88.71
66343;DHT22;53144;51.524;5.080;2023-06-22T04:30:32;17.93;88.26
66343;DHT22;53144;51.524;5.080;2023-06-22T04:32:58;17.97;88.66
66343;DHT22;53144;51.524;5.080;2023-06-22T04:35:24;18.06;88.36
66343;DHT22;53144;51.524;5.080;2023-06-22T04:37:50;18.06;88.62
66343;DHT22;53144;51.524;5.080;2023-06-22T04:40:15;18.14;87.81
66343;DHT22;53144;51.524;5.080;2023-06-22T04:42:41;18.13;87.43
66343;DHT22;53144;51.524;5.080;2023-06-22T04:45:18;18.23;87.97
66343;DHT22;53144;51.524;5.080;2023-06-22T04:47:44;18.21;88.08
66343;DHT22;53144;51.524;5.080;2023-06-22T04:50:13;18.37;87.31
66343;DHT22;53144;51.524;5.080;2023-06-22T04:52:39;18.34;86.99
66343;DHT22;53144;51.524;5.080;2023-06-22T04:55:05;18.38;88.60
66343;DHT22;53144;51.524;5.080;2023-06-22T04:57:30;18.54;86.53
66343;DHT22;53144;51.524;5.080;2023-06-22T05:00:01;18.54;86.81
66343;DHT22;53144;51.524;5.080;2023-06-22T05:02:41;18.64;87.05
66343;DHT22;53144;51.524;5.080;2023-06-22T05:05:07;18.76;85.65
66343;DHT22;53144;51.524;5.080;2023-06-22T05:07:34;18.91;84.38
66343;DHT22;53144;51.524;5.080;2023-06-22T05:10:03;18.92;84.35
66343;DHT22;53144;51.524;5.080;2023-06-22T05:12:29;18.94;84.69
66343;DHT22;53144;51.524;5.080;2023-06-22T05:14:55;19.03;84.85
66343;DHT22;53144;51.524;5.080;2023-06-22T05:17:20;19.08;83.99
66343;DHT22;53144;51.524;5.080;2023-06-22T05:19:46;19.05;85.25
66343;DHT22;53144;51.524;5.080;2023-06-22T05:22:16;19.08;84.50
66343;DHT22;53144;51.524;5.080;2023-06-22T05:24:43;19.20;82.83
66343;DHT22;53144;51.524;5.080;2023-06-22T05:27:09;19.27;83.38
66343;DHT22;53144;51.524;5.080;2023-06-22T05:29:34;19.41;81.53
66343;DHT22;53144;51.524;5.080;2023-06-22T05:32:00;19.47;81.43
66343;DHT22;53144;51.524;5.080;2023-06-22T05:34:26;19.58;81.37
66343;DHT22;53144;51.524;5.080;2023-06-22T05:36:51;19.67;80.52
66343;DHT22;53144;51.524;5.080;2023-06-22T05:39:17;19.71;81.38
66343;DHT22;53144;51.524;5.080;2023-06-22T05:41:44;19.74;80.68
66343;DHT22;53144;51.524;5.080;2023-06-22T05:44:10;19.89;79.44
66343;DHT22;53144;51.524;5.080;2023-06-22T05:46:35;19.99;79.08
66343;DHT22;53144;51.524;5.080;2023-06-22T05:49:01;20.11;79.12
66343;DHT22;53144;51.524;5.080;2023-06-22T05:51:26;20.26;79.03
66343;DHT22;53144;51.524;5.080;2023-06-22T05:53:51;20.36;77.95
66343;DHT22;53144;51.524;5.080;2023-06-22T05:56:17;20.47;78.07
66343;DHT22;53144;51.524;5.080;2023-06-22T05:58:42;20.63;77.94
66343;DHT22;53144;51.524;5.080;2023-06-22T06:01:08;20.76;77.98
66343;DHT22;53144;51.524;5.080;2023-06-22T06:03:33;20.83;77.07
66343;DHT22;53144;51.524;5.080;2023-06-22T06:05:58;20.81;77.47
66343;DHT22;53144;51.524;5.080;2023-06-22T06:08:25;20.77;78.34
66343;DHT22;53144;51.524;5.080;2023-06-22T06:10:50;20.83;78.35
66343;DHT22;53144;51.524;5.080;2023-06-22T06:13:18;20.94;77.44
66343;DHT22;53144;51.524;5.080;2023-06-22T06:15:43;20.83;79.04
66343;DHT22;53144;51.524;5.080;2023-06-22T06:18:09;21.00;77.54
66343;DHT22;53144;51.524;5.080;2023-06-22T06:20:34;20.97;77.47
66343;DHT22;53144;51.524;5.080;2023-06-22T06:23:00;20.93;79.71
66343;DHT22;53144;51.524;5.080;2023-06-22T06:25:26;20.86;79.33
66343;DHT22;53144;51.524;5.080;2023-06-22T06:27:52;20.77;79.59
66343;DHT22;53144;51.524;5.080;2023-06-22T06:30:19;20.86;79.30
66343;DHT22;53144;51.524;5.080;2023-06-22T06:32:46;20.95;77.93
66343;DHT22;53144;51.524;5.080;2023-06-22T06:35:13;21.01;78.17
66343;DHT22;53144;51.524;5.080;2023-06-22T06:37:40;20.98;79.52
66343;DHT22;53144;51.524;5.080;2023-06-22T06:40:07;21.01;77.87
66343;DHT22;53144;51.524;5.080;2023-06-22T06:42:43;21.05;78.56
66343;DHT22;53144;51.524;5.080;2023-06-22T06:45:19;21.12;78.74
66343;DHT22;53144;51.524;5.080;2023-06-22T06:47:45;21.15;78.20
66343;DHT22;53144;51.524;5.080;2023-06-22T06:50:11;21.15;79.10
66343;DHT22;53144;51.524;5.080;2023-06-22T06:52:37;21.27;78.38
66343;DHT22;53144;51.524;5.080;2023-06-22T06:55:03;21.38;78.30
66343;DHT22;53144;51.524;5.080;2023-06-22T06:57:34;21.39;78.69
66343;DHT22;53144;51.524;5.080;2023-06-22T07:00:00;21.42;78.57
66343;DHT22;53144;51.524;5.080;2023-06-22T07:02:26;21.53;79.51
66343;DHT22;53144;51.524;5.080;2023-06-22T07:04:53;21.59;79.02
66343;DHT22;53144;51.524;5.080;2023-06-22T07:07:20;21.61;78.91
66343;DHT22;53144;51.524;5.080;2023-06-22T07:09:46;21.81;78.77
66343;DHT22;53144;51.524;5.080;2023-06-22T07:12:11;21.96;78.13
66343;DHT22;53144;51.524;5.080;2023-06-22T07:14:37;22.00;78.44
66343;DHT22;53144;51.524;5.080;2023-06-22T07:17:02;22.02;77.34
66343;DHT22;53144;51.524;5.080;2023-06-22T07:19:28;21.97;76.22
66343;DHT22;53144;51.524;5.080;2023-06-22T07:21:54;21.99;77.20
66343;DHT22;53144;51.524;5.080;2023-06-22T07:24:20;21.93;78.01
66343;DHT22;53144;51.524;5.080;2023-06-22T07:26:47;21.88;77.77
66343;DHT22;53144;51.524;5.080;2023-06-22T07:29:13;21.76;79.71
66343;DHT22;53144;51.524;5.080;2023-06-22T07:31:39;21.76;79.88
66343;DHT22;53144;51.524;5.080;2023-06-22T07:34:06;21.76;78.08
66343;DHT22;53144;51.524;5.080;2023-06-22T07:36:31;21.58;79.19
66343;DHT22;53144;51.524;5.080;2023-06-22T07:38:57;21.44;79.14
66343;DHT22;53144;51.524;5.080;2023-06-22T07:41:22;21.49;79.59
66343;DHT22;53144;51.524;5.080;2023-06-22T07:43:48;21.45;82.22
66343;DHT22;53144;51.524;5.080;2023-06-22T07:46:13;21.46;81.67
66343;DHT22;53144;51.524;5.080;2023-06-22T07:48:39;21.45;78.75
66343;DHT22;53144;51.524;5.080;2023-06-22T07:51:06;21.55;81.02
66343;DHT22;53144;51.524;5.080;2023-06-22T07:53:32;21.76;78.45
66343;DHT22;53144;51.524;5.080;2023-06-22T07:55:57;21.93;80.20
66343;DHT22;53144;51.524;5.080;2023-06-22T07:58:23;22.02;78.55
66343;DHT22;53144;51.524;5.080;2023-06-22T08:00:48;22.02;77.96
66343;DHT22;53144;51.524;5.080;2023-06-22T08:03:15;22.14;77.21
66343;DHT22;53144;51.524;5.080;2023-06-22T08:05:40;22.14;76.54
66343;DHT22;53144;51.524;5.080;2023-06-22T08:08:05;22.25;75.85
66343;DHT22;53144;51.524;5.080;2023-06-22T08:10:31;22.18;77.18
66343;DHT22;53144;51.524;5.080;2023-06-22T08:12:56;22.16;77.00
66343;DHT22;53144;51.524;5.080;2023-06-22T08:15:22;22.20;77.31
66343;DHT22;53144;51.524;5.080;2023-06-22T08:17:47;22.09;77.44
66343;DHT22;53144;51.524;5.080;2023-06-22T08:20:13;22.09;76.78
66343;DHT22;53144;51.524;5.080;2023-06-22T08:22:39;21.96;77.43
66343;DHT22;53144;51.524;5.080;2023-06-22T08:25:05;21.96;78.36
66343;DHT22;53144;51.524;5.080;2023-06-22T08:27:31;22.00;76.42
66343;DHT22;53144;51.524;5.080;2023-06-22T08:30:00;21.96;78.69
66343;DHT22;53144;51.524;5.080;2023-06-22T08:32:29;21.90;78.00
66343;DHT22;53144;51.524;5.080;2023-06-22T08:34:56;21.90;77.99
66343;DHT22;53144;51.524;5.080;2023-06-22T08:37:22;21.82;77.89
66343;DHT22;53144;51.524;5.080;2023-06-22T08:39:59;21.72;78.92
66343;DHT22;53144;51.524;5.080;2023-06-22T08:42:25;21.79;78.14
66343;DHT22;53144;51.524;5.080;2023-06-22T08:44:51;21.83;77.58
66343;DHT22;53144;51.524;5.080;2023-06-22T08:47:16;21.67;78.57
66343;DHT22;53144;51.524;5.080;2023-06-22T08:49:42;21.72;79.73
66343;DHT22;53144;51.524;5.080;2023-06-22T08:52:07;21.69;77.90
66343;DHT22;53144;51.524;5.080;2023-06-22T08:54:33;21.62;79.63
66343;DHT22;53144;51.524;5.080;2023-06-22T08:57:00;21.73;76.48
66343;DHT22;53144;51.524;5.080;2023-06-22T08:59:25;21.82;76.28
66343;DHT22;53144;51.524;5.080;2023-06-22T09:01:51;21.83;77.51
66343;DHT22;53144;51.524;5.080;2023-06-22T09:04:16;21.83;76.92
66343;DHT22;53144;51.524;5.080;2023-06-22T09:06:42;21.81;76.40
66343;DHT22;53144;51.524;5.080;2023-06-22T09:09:11;21.82;76.50
66343;DHT22;53144;51.524;5.080;2023-06-22T09:11:37;21.89;77.07
66343;DHT22;53144;51.524;5.080;2023-06-22T09:14:02;21.93;77.44
66343;DHT22;53144;51.524;5.080;2023-06-22T09:16:29;21.92;78.55
66343;DHT22;53144;51.524;5.080;2023-06-22T09:18:54;21.92;80.14
66343;DHT22;53144;51.524;5.080;2023-06-22T09:21:19;22.02;75.83
66343;DHT22;53144;51.524;5.080;2023-06-22T09:23:45;22.06;75.49
66343;DHT22;53144;51.524;5.080;2023-06-22T09:26:15;21.96;77.10
66343;DHT22;53144;51.524;5.080;2023-06-22T09:28:40;21.94;77.33
66343;DHT22;53144;51.524;5.080;2023-06-22T09:31:06;22.03;75.80
66343;DHT22;53144;51.524;5.080;2023-06-22T09:33:32;21.94;75.96
66343;DHT22;53144;51.524;5.080;2023-06-22T09:36:02;21.97;75.92
66343;DHT22;53144;51.524;5.080;2023-06-22T09:38:27;22.03;75.16
66343;DHT22;53144;51.524;5.080;2023-06-22T09:40:53;21.99;76.67
66343;DHT22;53144;51.524;5.080;2023-06-22T09:43:19;21.93;76.71
66343;DHT22;53144;51.524;5.080;2023-06-22T09:45:45;21.97;76.94
66343;DHT22;53144;51.524;5.080;2023-06-22T09:48:10;21.93;76.98
66343;DHT22;53144;51.524;5.080;2023-06-22T09:50:36;21.93;76.66
66343;DHT22;53144;51.524;5.080;2023-06-22T09:53:02;21.99;75.74
66343;DHT22;53144;51.524;5.080;2023-06-22T09:55:28;22.02;76.18
66343;DHT22;53144;51.524;5.080;2023-06-22T09:57:53;21.99;76.98
66343;DHT22;53144;51.524;5.080;2023-06-22T10:00:23;21.96;77.79
66343;DHT22;53144;51.524;5.080;2023-06-22T10:02:49;21.85;77.22
66343;DHT22;53144;51.524;5.080;2023-06-22T10:05:15;21.88;76.82
66343;DHT22;53144;51.524;5.080;2023-06-22T10:07:41;21.93;76.99
66343;DHT22;53144;51.524;5.080;2023-06-22T10:10:12;21.99;77.08
66343;DHT22;53144;51.524;5.080;2023-06-22T10:12:46;22.00;76.30
66343;DHT22;53144;51.524;5.080;2023-06-22T10:15:12;21.99;75.29
66343;DHT22;53144;51.524;5.080;2023-06-22T10:17:38;21.99;75.30
66343;DHT22;53144;51.524;5.080;2023-06-22T10:20:05;22.04;77.16
66343;DHT22;53144;51.524;5.080;2023-06-22T10:22:41;22.02;77.30
66343;DHT22;53144;51.524;5.080;2023-06-22T10:25:07;22.02;77.16
66343;DHT22;53144;51.524;5.080;2023-06-22T10:27:33;22.00;78.68
66343;DHT22;53144;51.524;5.080;2023-06-22T10:29:58;21.82;78.76
66343;DHT22;53144;51.524;5.080;2023-06-22T10:32:23;21.82;79.99
66343;DHT22;53144;51.524;5.080;2023-06-22T10:34:49;21.79;82.10
66343;DHT22;53144;51.524;5.080;2023-06-22T10:37:14;21.69;80.99
66343;DHT22;53144;51.524;5.080;2023-06-22T10:39:40;21.63;81.67
66343;DHT22;53144;51.524;5.080;2023-06-22T10:42:05;21.55;81.47
66343;DHT22;53144;51.524;5.080;2023-06-22T10:44:31;21.49;83.55
66343;DHT22;53144;51.524;5.080;2023-06-22T10:46:56;21.41;84.02
66343;DHT22;53144;51.524;5.080;2023-06-22T10:49:21;21.45;84.20
66343;DHT22;53144;51.524;5.080;2023-06-22T10:51:47;21.52;84.94
66343;DHT22;53144;51.524;5.080;2023-06-22T10:54:12;21.53;83.68
66343;DHT22;53144;51.524;5.080;2023-06-22T10:56:39;21.51;83.09
66343;DHT22;53144;51.524;5.080;2023-06-22T10:59:05;21.56;84.71
66343;DHT22;53144;51.524;5.080;2023-06-22T11:01:30;21.39;84.24
66343;DHT22;53144;51.524;5.080;2023-06-22T11:03:56;21.37;86.64
66343;DHT22;53144;51.524;5.080;2023-06-22T11:06:22;21.24;88.45
66343;DHT22;53144;51.524;5.080;2023-06-22T11:08:47;21.11;88.04
66343;DHT22;53144;51.524;5.080;2023-06-22T11:11:13;20.90;91.19
66343;DHT22;53144;51.524;5.080;2023-06-22T11:13:38;20.95;92.16
66343;DHT22;53144;51.524;5.080;2023-06-22T11:16:04;20.81;89.42
66343;DHT22;53144;51.524;5.080;2023-06-22T11:18:31;20.81;89.85
66343;DHT22;53144;51.524;5.080;2023-06-22T11:20:59;20.77;90.82
66343;DHT22;53144;51.524;5.080;2023-06-22T11:23:24;20.72;92.50
66343;DHT22;53144;51.524;5.080;2023-06-22T11:25:51;20.72;92.69
66343;DHT22;53144;51.524;5.080;2023-06-22T11:28:16;20.74;93.56
66343;DHT22;53144;51.524;5.080;2023-06-22T11:30:42;20.49;93.77
66343;DHT22;53144;51.524;5.080;2023-06-22T11:33:07;20.55;94.56
66343;DHT22;53144;51.524;5.080;2023-06-22T11:35:33;20.57;94.99
66343;DHT22;53144;51.524;5.080;2023-06-22T11:37:58;20.72;94.60
66343;DHT22;53144;51.524;5.080;2023-06-22T11:40:24;20.74;93.65
66343;DHT22;53144;51.524;5.080;2023-06-22T11:42:49;20.66;94.61
66343;DHT22;53144;51.524;5.080;2023-06-22T11:45:14;20.70;93.09
66343;DHT22;53144;51.524;5.080;2023-06-22T11:47:40;20.70;93.14
66343;DHT22;53144;51.524;5.080;2023-06-22T11:50:06;20.57;94.44
66343;DHT22;53144;51.524;5.080;2023-06-22T11:52:32;20.47;94.45
66343;DHT22;53144;51.524;5.080;2023-06-22T11:54:58;20.49;93.71
66343;DHT22;53144;51.524;5.080;2023-06-22T11:57:24;20.33;93.91
66343;DHT22;53144;51.524;5.080;2023-06-22T11:59:50;20.24;94.33
66343;DHT22;53144;51.524;5.080;2023-06-22T12:02:15;20.21;95.01
66343;DHT22;53144;51.524;5.080;2023-06-22T12:04:40;20.07;95.41
66343;DHT22;53144;51.524;5.080;2023-06-22T12:07:06;19.77;93.34
66343;DHT22;53144;51.524;5.080;2023-06-22T12:09:32;19.67;94.61
66343;DHT22;53144;51.524;5.080;2023-06-22T12:11:58;19.49;95.60
66343;DHT22;53144;51.524;5.080;2023-06-22T12:14:23;19.47;95.30
66343;DHT22;53144;51.524;5.080;2023-06-22T12:16:49;19.27;95.57
66343;DHT22;53144;51.524;5.080;2023-06-22T12:19:14;19.23;96.06
66343;DHT22;53144;51.524;5.080;2023-06-22T12:21:40;19.18;96.61
66343;DHT22;53144;51.524;5.080;2023-06-22T12:24:06;19.05;96.54
66343;DHT22;53144;51.524;5.080;2023-06-22T12:26:31;19.05;97.13
66343;DHT22;53144;51.524;5.080;2023-06-22T12:28:56;19.05;96.50
66343;DHT22;53144;51.524;5.080;2023-06-22T12:31:22;19.08;97.38
66343;DHT22;53144;51.524;5.080;2023-06-22T12:33:47;19.08;97.09
66343;DHT22;53144;51.524;5.080;2023-06-22T12:36:13;19.08;96.06
66343;DHT22;53144;51.524;5.080;2023-06-22T12:38:38;19.05;95.33
66343;DHT22;53144;51.524;5.080;2023-06-22T12:41:04;18.98;95.90
66343;DHT22;53144;51.524;5.080;2023-06-22T12:43:29;18.96;96.89
66343;DHT22;53144;51.524;5.080;2023-06-22T12:45:54;18.87;96.61
66343;DHT22;53144;51.524;5.080;2023-06-22T12:48:21;18.87;96.87
66343;DHT22;53144;51.524;5.080;2023-06-22T12:50:47;18.92;96.74
66343;DHT22;53144;51.524;5.080;2023-06-22T12:53:13;18.88;96.80
66343;DHT22;53144;51.524;5.080;2023-06-22T12:55:38;18.89;96.95
66343;DHT22;53144;51.524;5.080;2023-06-22T12:58:03;18.84;96.12
66343;DHT22;53144;51.524;5.080;2023-06-22T13:00:29;18.89;96.06
66343;DHT22;53144;51.524;5.080;2023-06-22T13:02:54;18.81;96.70
66343;DHT22;53144;51.524;5.080;2023-06-22T13:05:20;18.84;97.05
66343;DHT22;53144;51.524;5.080;2023-06-22T13:07:45;18.88;97.33
66343;DHT22;53144;51.524;5.080;2023-06-22T13:10:11;18.96;98.20
66343;DHT22;53144;51.524;5.080;2023-06-22T13:12:36;18.96;98.10
66343;DHT22;53144;51.524;5.080;2023-06-22T13:15:01;19.06;97.96
66343;DHT22;53144;51.524;5.080;2023-06-22T13:17:28;19.06;97.25
66343;DHT22;53144;51.524;5.080;2023-06-22T13:19:53;19.09;96.77
66343;DHT22;53144;51.524;5.080;2023-06-22T13:22:45;19.00;96.08
66343;DHT22;53144;51.524;5.080;2023-06-22T13:25:11;19.02;96.35
66343;DHT22;53144;51.524;5.080;2023-06-22T13:27:41;19.02;96.57
66343;DHT22;53144;51.524;5.080;2023-06-22T13:30:07;19.00;97.00
66343;DHT22;53144;51.524;5.080;2023-06-22T13:32:33;19.02;97.05
66343;DHT22;53144;51.524;5.080;2023-06-22T13:34:58;18.98;96.56
66343;DHT22;53144;51.524;5.080;2023-06-22T13:37:24;18.98;96.45
66343;DHT22;53144;51.524;5.080;2023-06-22T13:39:49;18.98;96.56
66343;DHT22;53144;51.524;5.080;2023-06-22T13:42:14;18.92;97.19
66343;DHT22;53144;51.524;5.080;2023-06-22T13:44:40;18.87;96.97
66343;DHT22;53144;51.524;5.080;2023-06-22T13:47:06;18.89;97.30
66343;DHT22;53144;51.524;5.080;2023-06-22T13:49:31;18.91;96.92
66343;DHT22;53144;51.524;5.080;2023-06-22T13:51:57;18.88;97.63
66343;DHT22;53144;51.524;5.080;2023-06-22T13:54:22;18.71;97.84
66343;DHT22;53144;51.524;5.080;2023-06-22T13:56:48;18.72;98.22
66343;DHT22;53144;51.524;5.080;2023-06-22T13:59:13;18.78;97.99
66343;DHT22;53144;51.524;5.080;2023-06-22T14:01:38;18.88;98.36
66343;DHT22;53144;51.524;5.080;2023-06-22T14:04:05;18.87;98.15
66343;DHT22;53144;51.524;5.080;2023-06-22T14:06:30;18.78;97.86
66343;DHT22;53144;51.524;5.080;2023-06-22T14:08:56;18.82;98.21
66343;DHT22;53144;51.524;5.080;2023-06-22T14:11:21;18.75;98.28
66343;DHT22;53144;51.524;5.080;2023-06-22T14:13:47;18.68;97.85
66343;DHT22;53144;51.524;5.080;2023-06-22T14:16:12;18.79;98.34
66343;DHT22;53144;51.524;5.080;2023-06-22T14:18:38;18.82;98.38
66343;DHT22;53144;51.524;5.080;2023-06-22T14:21:03;18.82;98.46
66343;DHT22;53144;51.524;5.080;2023-06-22T14:23:28;18.82;98.22
66343;DHT22;53144;51.524;5.080;2023-06-22T14:25:54;18.78;98.46
66343;DHT22;53144;51.524;5.080;2023-06-22T14:28:19;18.73;98.22
66343;DHT22;53144;51.524;5.080;2023-06-22T14:30:45;18.81;98.66
66343;DHT22;53144;51.524;5.080;2023-06-22T14:33:11;18.76;98.52
66343;DHT22;53144;51.524;5.080;2023-06-22T14:35:37;18.73;98.94
66343;DHT22;53144;51.524;5.080;2023-06-22T14:38:02;18.72;98.82
66343;DHT22;53144;51.524;5.080;2023-06-22T14:40:27;18.76;99.21
66343;DHT22;53144;51.524;5.080;2023-06-22T14:42:53;18.78;99.18
66343;DHT22;53144;51.524;5.080;2023-06-22T14:45:19;18.72;99.28
66343;DHT22;53144;51.524;5.080;2023-06-22T14:47:44;18.73;99.52
66343;DHT22;53144;51.524;5.080;2023-06-22T14:50:09;18.69;99.44
66343;DHT22;53144;51.524;5.080;2023-06-22T14:52:35;18.72;99.45
66343;DHT22;53144;51.524;5.080;2023-06-22T14:55:00;18.76;99.58
66343;DHT22;53144;51.524;5.080;2023-06-22T14:57:25;18.75;99.71
66343;DHT22;53144;51.524;5.080;2023-06-22T14:59:51;18.76;99.48
66343;DHT22;53144;51.524;5.080;2023-06-22T15:02:16;18.78;99.74
66343;DHT22;53144;51.524;5.080;2023-06-22T15:04:42;18.79;99.60
66343;DHT22;53144;51.524;5.080;2023-06-22T15:07:08;18.79;99.60
66343;DHT22;53144;51.524;5.080;2023-06-22T15:09:33;18.81;99.49
66343;DHT22;53144;51.524;5.080;2023-06-22T15:11:59;18.85;99.49
66343;DHT22;53144;51.524;5.080;2023-06-22T15:14:29;18.84;99.51
66343;DHT22;53144;51.524;5.080;2023-06-22T15:16:55;18.84;99.50
66343;DHT22;53144;51.524;5.080;2023-06-22T15:19:20;18.75;99.16
66343;DHT22;53144;51.524;5.080;2023-06-22T15:21:46;18.82;99.22
66343;DHT22;53144;51.524;5.080;2023-06-22T15:24:11;18.79;99.02
66343;DHT22;53144;51.524;5.080;2023-06-22T15:26:37;18.69;98.71
66343;DHT22;53144;51.524;5.080;2023-06-22T15:29:02;18.81;99.11
66343;DHT22;53144;51.524;5.080;2023-06-22T15:31:28;18.78;99.55